sensor_id;sensor_type;location;lat;lon;timestamp;P1;durP1;ratioP1;P2;durP2;ratioP2
81801;SDS011;71199;52.490;5.448;2023-09-08T00:00:44;10.82;;;8.60;;
81801;SDS011;71199;52.490;5.448;2023-09-08T00:05:36;12.93;;;8.57;;
81801;SDS011;71199;52.490;5.448;2023-09-08T00:08:02;10.75;;;8.82;;
81801;SDS011;71199;52.490;5.448;2023-09-08T00:10:27;13.13;;;9.25;;
81801;SDS011;71199;52.490;5.448;2023-09-08T00:12:52;12.67;;;9.07;;
81801;SDS011;71199;52.490;5.448;2023-09-08T00:15:18;12.00;;;8.83;;
81801;SDS011;71199;52.490;5.448;2023-09-08T00:17:43;10.80;;;8.80;;
81801;SDS011;71199;52.490;5.448;2023-09-08T00:20:09;11.73;;;8.67;;
81801;SDS011;71199;52.490;5.448;2023-09-08T00:22:34;14.10;;;8.65;;
81801;SDS011;71199;52.490;5.448;2023-09-08T00:25:00;11.25;;;7.93;;
81801;SDS011;71199;52.490;5.448;2023-09-08T00:27:26;12.50;;;8.20;;
81801;SDS011;71199;52.490;5.448;2023-09-08T00:29:51;14.05;;;8.32;;
81801;SDS011;71199;52.490;5.448;2023-09-08T00:32:17;13.18;;;8.20;;
81801;SDS011;71199;52.490;5.448;2023-09-08T00:34:42;12.13;;;8.07;;
81801;SDS011;71199;52.490;5.448;2023-09-08T00:37:07;16.02;;;7.78;;
81801;SDS011;71199;52.490;5.448;2023-09-08T00:39:35;12.85;;;7.95;;
81801;SDS011;71199;52.490;5.448;2023-09-08T00:42:01;13.70;;;8.65;;
81801;SDS011;71199;52.490;5.448;2023-09-08T00:44:26;11.68;;;8.30;;
81801;SDS011;71199;52.490;5.448;2023-09-08T00:46:51;12.30;;;8.07;;
81801;SDS011;71199;52.490;5.448;2023-09-08T00:49:17;14.68;;;8.93;;
81801;SDS011;71199;52.490;5.448;2023-09-08T00:51:42;12.30;;;8.48;;
81801;SDS011;71199;52.490;5.448;2023-09-08T00:54:08;10.67;;;8.10;;
81801;SDS011;71199;52.490;5.448;2023-09-08T00:56:34;11.20;;;8.90;;
81801;SDS011;71199;52.490;5.448;2023-09-08T00:59:02;13.93;;;8.23;;
81801;SDS011;71199;52.490;5.448;2023-09-08T01:01:27;13.30;;;8.40;;
81801;SDS011;71199;52.490;5.448;2023-09-08T01:03:53;14.23;;;8.18;;
81801;SDS011;71199;52.490;5.448;2023-09-08T01:06:18;11.93;;;8.40;;
81801;SDS011;71199;52.490;5.448;2023-09-08T01:08:44;10.77;;;7.90;;
81801;SDS011;71199;52.490;5.448;2023-09-08T01:11:10;10.60;;;8.15;;
81801;SDS011;71199;52.490;5.448;2023-09-08T01:13:36;16.08;;;8.50;;
81801;SDS011;71199;52.490;5.448;2023-09-08T01:16:01;12.88;;;7.95;;
81801;SDS011;71199;52.490;5.448;2023-09-08T01:18:27;11.43;;;8.05;;
81801;SDS011;71199;52.490;5.448;2023-09-08T01:23:37;11.45;;;7.43;;
81801;SDS011;71199;52.490;5.448;2023-09-08T01:26:17;13.15;;;8.73;;
81801;SDS011;71199;52.490;5.448;2023-09-08T01:28:47;9.80;;;7.65;;
81801;SDS011;71199;52.490;5.448;2023-09-08T01:31:15;11.38;;;8.27;;
81801;SDS011;71199;52.490;5.448;2023-09-08T01:33:41;12.20;;;8.43;;
81801;SDS011;71199;52.490;5.448;2023-09-08T01:36:08;11.68;;;8.45;;
81801;SDS011;71199;52.490;5.448;2023-09-08T01:38:33;11.60;;;8.07;;
81801;SDS011;71199;52.490;5.448;2023-09-08T01:40:59;12.57;;;8.75;;
81801;SDS011;71199;52.490;5.448;2023-09-08T01:43:26;22.75;;;9.07;;
81801;SDS011;71199;52.490;5.448;2023-09-08T01:45:52;13.35;;;8.38;;
81801;SDS011;71199;52.490;5.448;2023-09-08T01:48:17;12.20;;;8.63;;
81801;SDS011;71199;52.490;5.448;2023-09-08T01:50:43;12.57;;;8.95;;
81801;SDS011;71199;52.490;5.448;2023-09-08T01:53:08;12.80;;;9.00;;
81801;SDS011;71199;52.490;5.448;2023-09-08T01:55:33;14.05;;;8.48;;
81801;SDS011;71199;52.490;5.448;2023-09-08T01:57:59;11.63;;;8.53;;
81801;SDS011;71199;52.490;5.448;2023-09-08T02:00:24;13.15;;;9.27;;
81801;SDS011;71199;52.490;5.448;2023-09-08T02:02:50;14.43;;;9.43;;
81801;SDS011;71199;52.490;5.448;2023-09-08T02:05:15;17.50;;;9.07;;
81801;SDS011;71199;52.490;5.448;2023-09-08T02:07:40;13.55;;;8.68;;
81801;SDS011;71199;52.490;5.448;2023-09-08T02:10:06;13.63;;;8.77;;
81801;SDS011;71199;52.490;5.448;2023-09-08T02:12:31;14.07;;;9.48;;
81801;SDS011;71199;52.490;5.448;2023-09-08T02:14:57;14.77;;;8.65;;
81801;SDS011;71199;52.490;5.448;2023-09-08T02:17:22;13.73;;;9.15;;
81801;SDS011;71199;52.490;5.448;2023-09-08T02:19:48;13.18;;;9.43;;
81801;SDS011;71199;52.490;5.448;2023-09-08T02:22:13;16.40;;;10.10;;
81801;SDS011;71199;52.490;5.448;2023-09-08T02:24:38;12.73;;;9.85;;
81801;SDS011;71199;52.490;5.448;2023-09-08T02:27:04;14.00;;;10.20;;
81801;SDS011;71199;52.490;5.448;2023-09-08T02:29:30;15.55;;;9.45;;
81801;SDS011;71199;52.490;5.448;2023-09-08T02:31:56;12.32;;;9.65;;
81801;SDS011;71199;52.490;5.448;2023-09-08T02:34:21;14.17;;;9.47;;
81801;SDS011;71199;52.490;5.448;2023-09-08T02:36:46;19.00;;;10.13;;
81801;SDS011;71199;52.490;5.448;2023-09-08T02:39:16;15.80;;;10.30;;
81801;SDS011;71199;52.490;5.448;2023-09-08T02:41:41;14.88;;;9.57;;
81801;SDS011;71199;52.490;5.448;2023-09-08T02:44:07;15.10;;;10.55;;
81801;SDS011;71199;52.490;5.448;2023-09-08T02:46:32;16.08;;;10.32;;
81801;SDS011;71199;52.490;5.448;2023-09-08T02:48:57;13.30;;;9.30;;
81801;SDS011;71199;52.490;5.448;2023-09-08T02:51:23;16.73;;;10.03;;
81801;SDS011;71199;52.490;5.448;2023-09-08T02:53:48;15.03;;;10.30;;
81801;SDS011;71199;52.490;5.448;2023-09-08T02:56:13;13.40;;;10.30;;
81801;SDS011;71199;52.490;5.448;2023-09-08T02:58:39;16.70;;;10.68;;
81801;SDS011;71199;52.490;5.448;2023-09-08T03:01:14;13.97;;;10.47;;
81801;SDS011;71199;52.490;5.448;2023-09-08T03:03:41;16.52;;;10.35;;
81801;SDS011;71199;52.490;5.448;2023-09-08T03:06:07;15.90;;;10.40;;
81801;SDS011;71199;52.490;5.448;2023-09-08T03:08:33;17.52;;;10.55;;
81801;SDS011;71199;52.490;5.448;2023-09-08T03:10:58;15.90;;;10.35;;
81801;SDS011;71199;52.490;5.448;2023-09-08T03:13:24;18.10;;;9.98;;
81801;SDS011;71199;52.490;5.448;2023-09-08T03:15:51;15.35;;;10.48;;
81801;SDS011;71199;52.490;5.448;2023-09-08T03:18:16;16.20;;;10.43;;
81801;SDS011;71199;52.490;5.448;2023-09-08T03:20:42;17.33;;;10.07;;
81801;SDS011;71199;52.490;5.448;2023-09-08T03:23:08;14.43;;;9.68;;
81801;SDS011;71199;52.490;5.448;2023-09-08T03:25:34;15.32;;;10.68;;
81801;SDS011;71199;52.490;5.448;2023-09-08T03:27:59;18.58;;;10.15;;
81801;SDS011;71199;52.490;5.448;2023-09-08T03:30:24;16.13;;;10.07;;
81801;SDS011;71199;52.490;5.448;2023-09-08T03:32:50;14.33;;;9.67;;
81801;SDS011;71199;52.490;5.448;2023-09-08T03:35:15;13.70;;;10.00;;
81801;SDS011;71199;52.490;5.448;2023-09-08T03:37:41;15.40;;;9.93;;
81801;SDS011;71199;52.490;5.448;2023-09-08T03:40:06;12.50;;;9.33;;
81801;SDS011;71199;52.490;5.448;2023-09-08T03:42:32;12.85;;;10.15;;
81801;SDS011;71199;52.490;5.448;2023-09-08T03:44:57;15.93;;;10.83;;
81801;SDS011;71199;52.490;5.448;2023-09-08T03:47:23;17.57;;;10.83;;
81801;SDS011;71199;52.490;5.448;2023-09-08T03:49:48;14.53;;;9.97;;
81801;SDS011;71199;52.490;5.448;2023-09-08T03:52:13;16.73;;;10.53;;
81801;SDS011;71199;52.490;5.448;2023-09-08T03:54:39;16.35;;;10.93;;
81801;SDS011;71199;52.490;5.448;2023-09-08T03:57:04;14.57;;;10.57;;
81801;SDS011;71199;52.490;5.448;2023-09-08T03:59:30;14.03;;;10.07;;
81801;SDS011;71199;52.490;5.448;2023-09-08T04:01:55;14.73;;;9.83;;
81801;SDS011;71199;52.490;5.448;2023-09-08T04:04:20;13.18;;;10.23;;
81801;SDS011;71199;52.490;5.448;2023-09-08T04:06:47;15.43;;;10.80;;
81801;SDS011;71199;52.490;5.448;2023-09-08T04:09:12;16.02;;;10.23;;
81801;SDS011;71199;52.490;5.448;2023-09-08T04:11:37;15.18;;;10.52;;
81801;SDS011;71199;52.490;5.448;2023-09-08T04:14:03;16.48;;;11.90;;
81801;SDS011;71199;52.490;5.448;2023-09-08T04:16:28;15.27;;;10.52;;
81801;SDS011;71199;52.490;5.448;2023-09-08T04:18:54;14.63;;;10.73;;
81801;SDS011;71199;52.490;5.448;2023-09-08T04:21:19;17.80;;;11.27;;
81801;SDS011;71199;52.490;5.448;2023-09-08T04:23:44;16.60;;;10.83;;
81801;SDS011;71199;52.490;5.448;2023-09-08T04:26:10;16.90;;;11.47;;
81801;SDS011;71199;52.490;5.448;2023-09-08T04:28:35;18.70;;;11.20;;
81801;SDS011;71199;52.490;5.448;2023-09-08T04:31:00;15.70;;;10.57;;
81801;SDS011;71199;52.490;5.448;2023-09-08T04:33:26;16.77;;;11.63;;
81801;SDS011;71199;52.490;5.448;2023-09-08T04:35:51;18.30;;;11.23;;
81801;SDS011;71199;52.490;5.448;2023-09-08T04:38:16;16.50;;;11.40;;
81801;SDS011;71199;52.490;5.448;2023-09-08T04:40:42;16.98;;;11.15;;
81801;SDS011;71199;52.490;5.448;2023-09-08T04:43:10;18.15;;;12.05;;
81801;SDS011;71199;52.490;5.448;2023-09-08T04:45:35;17.85;;;11.02;;
81801;SDS011;71199;52.490;5.448;2023-09-08T04:48:02;17.15;;;11.57;;
81801;SDS011;71199;52.490;5.448;2023-09-08T04:50:27;18.05;;;11.00;;
81801;SDS011;71199;52.490;5.448;2023-09-08T04:52:52;19.10;;;11.80;;
81801;SDS011;71199;52.490;5.448;2023-09-08T04:55:18;19.43;;;11.87;;
81801;SDS011;71199;52.490;5.448;2023-09-08T04:57:44;16.27;;;10.73;;
81801;SDS011;71199;52.490;5.448;2023-09-08T05:00:10;15.48;;;11.85;;
81801;SDS011;71199;52.490;5.448;2023-09-08T05:02:36;16.33;;;11.18;;
81801;SDS011;71199;52.490;5.448;2023-09-08T05:05:02;17.45;;;11.15;;
81801;SDS011;71199;52.490;5.448;2023-09-08T05:07:28;19.40;;;11.63;;
81801;SDS011;71199;52.490;5.448;2023-09-08T05:09:53;17.43;;;11.27;;
81801;SDS011;71199;52.490;5.448;2023-09-08T05:12:18;19.20;;;11.77;;
81801;SDS011;71199;52.490;5.448;2023-09-08T05:14:44;16.37;;;11.83;;
81801;SDS011;71199;52.490;5.448;2023-09-08T05:17:09;16.42;;;11.75;;
81801;SDS011;71199;52.490;5.448;2023-09-08T05:19:34;17.90;;;11.87;;
81801;SDS011;71199;52.490;5.448;2023-09-08T05:22:00;17.25;;;11.95;;
81801;SDS011;71199;52.490;5.448;2023-09-08T05:24:26;16.80;;;11.27;;
81801;SDS011;71199;52.490;5.448;2023-09-08T05:26:52;18.70;;;12.10;;
81801;SDS011;71199;52.490;5.448;2023-09-08T05:29:17;18.90;;;12.40;;
81801;SDS011;71199;52.490;5.448;2023-09-08T05:31:43;17.48;;;11.50;;
81801;SDS011;71199;52.490;5.448;2023-09-08T05:34:08;15.98;;;11.68;;
81801;SDS011;71199;52.490;5.448;2023-09-08T05:36:34;16.15;;;12.10;;
81801;SDS011;71199;52.490;5.448;2023-09-08T05:39:02;15.38;;;11.05;;
81801;SDS011;71199;52.490;5.448;2023-09-08T05:41:27;16.08;;;11.85;;
81801;SDS011;71199;52.490;5.448;2023-09-08T05:43:53;14.57;;;10.23;;
81801;SDS011;71199;52.490;5.448;2023-09-08T05:46:19;17.27;;;11.23;;
81801;SDS011;71199;52.490;5.448;2023-09-08T05:48:44;18.98;;;12.95;;
81801;SDS011;71199;52.490;5.448;2023-09-08T05:51:10;15.13;;;10.48;;
81801;SDS011;71199;52.490;5.448;2023-09-08T05:53:35;16.25;;;10.45;;
81801;SDS011;71199;52.490;5.448;2023-09-08T05:56:03;20.13;;;11.38;;
81801;SDS011;71199;52.490;5.448;2023-09-08T05:58:28;17.75;;;11.63;;
81801;SDS011;71199;52.490;5.448;2023-09-08T06:00:54;16.45;;;11.00;;
81801;SDS011;71199;52.490;5.448;2023-09-08T06:03:19;19.83;;;12.05;;
81801;SDS011;71199;52.490;5.448;2023-09-08T06:05:45;13.93;;;10.30;;
81801;SDS011;71199;52.490;5.448;2023-09-08T06:08:10;14.53;;;10.70;;
81801;SDS011;71199;52.490;5.448;2023-09-08T06:10:37;17.90;;;10.68;;
81801;SDS011;71199;52.490;5.448;2023-09-08T06:13:03;18.00;;;10.50;;
81801;SDS011;71199;52.490;5.448;2023-09-08T06:15:28;14.77;;;9.93;;
81801;SDS011;71199;52.490;5.448;2023-09-08T06:17:54;16.03;;;9.70;;
81801;SDS011;71199;52.490;5.448;2023-09-08T06:20:19;14.52;;;10.00;;
81801;SDS011;71199;52.490;5.448;2023-09-08T06:22:45;16.25;;;9.77;;
81801;SDS011;71199;52.490;5.448;2023-09-08T06:25:10;15.57;;;10.20;;
81801;SDS011;71199;52.490;5.448;2023-09-08T06:27:36;16.77;;;9.55;;
81801;SDS011;71199;52.490;5.448;2023-09-08T06:30:01;15.40;;;9.57;;
81801;SDS011;71199;52.490;5.448;2023-09-08T06:32:27;16.23;;;9.50;;
81801;SDS011;71199;52.490;5.448;2023-09-08T06:34:53;12.05;;;9.20;;
81801;SDS011;71199;52.490;5.448;2023-09-08T06:37:18;12.97;;;9.00;;
81801;SDS011;71199;52.490;5.448;2023-09-08T06:39:43;14.63;;;9.67;;
81801;SDS011;71199;52.490;5.448;2023-09-08T06:42:09;13.52;;;9.18;;
81801;SDS011;71199;52.490;5.448;2023-09-08T06:44:34;13.53;;;9.57;;
81801;SDS011;71199;52.490;5.448;2023-09-08T06:46:59;12.40;;;9.13;;
81801;SDS011;71199;52.490;5.448;2023-09-08T06:49:25;14.93;;;8.98;;
81801;SDS011;71199;52.490;5.448;2023-09-08T06:51:50;14.07;;;9.88;;
81801;SDS011;71199;52.490;5.448;2023-09-08T06:54:16;13.35;;;9.10;;
81801;SDS011;71199;52.490;5.448;2023-09-08T06:56:41;13.63;;;9.48;;
81801;SDS011;71199;52.490;5.448;2023-09-08T06:59:06;11.40;;;8.90;;
81801;SDS011;71199;52.490;5.448;2023-09-08T07:01:32;14.20;;;9.63;;
81801;SDS011;71199;52.490;5.448;2023-09-08T07:03:57;18.33;;;9.23;;
81801;SDS011;71199;52.490;5.448;2023-09-08T07:06:22;14.38;;;8.75;;
81801;SDS011;71199;52.490;5.448;2023-09-08T07:08:48;11.37;;;8.60;;
81801;SDS011;71199;52.490;5.448;2023-09-08T07:11:16;12.93;;;8.77;;
81801;SDS011;71199;52.490;5.448;2023-09-08T07:13:42;13.77;;;8.82;;
81801;SDS011;71199;52.490;5.448;2023-09-08T07:16:07;15.45;;;8.88;;
81801;SDS011;71199;52.490;5.448;2023-09-08T07:18:33;12.88;;;8.85;;
81801;SDS011;71199;52.490;5.448;2023-09-08T07:21:01;11.95;;;8.38;;
81801;SDS011;71199;52.490;5.448;2023-09-08T07:23:27;11.95;;;8.75;;
81801;SDS011;71199;52.490;5.448;2023-09-08T07:25:52;15.85;;;9.27;;
81801;SDS011;71199;52.490;5.448;2023-09-08T07:28:17;13.38;;;8.88;;
81801;SDS011;71199;52.490;5.448;2023-09-08T07:30:43;12.13;;;9.45;;
81801;SDS011;71199;52.490;5.448;2023-09-08T07:33:08;14.00;;;8.90;;
81801;SDS011;71199;52.490;5.448;2023-09-08T07:35:37;12.73;;;9.27;;
81801;SDS011;71199;52.490;5.448;2023-09-08T07:38:04;15.45;;;9.05;;
81801;SDS011;71199;52.490;5.448;2023-09-08T07:40:30;11.75;;;9.07;;
81801;SDS011;71199;52.490;5.448;2023-09-08T07:45:21;12.13;;;8.50;;
81801;SDS011;71199;52.490;5.448;2023-09-08T07:47:47;12.20;;;8.60;;
81801;SDS011;71199;52.490;5.448;2023-09-08T07:50:15;12.43;;;8.67;;
81801;SDS011;71199;52.490;5.448;2023-09-08T07:52:49;14.57;;;8.57;;
81801;SDS011;71199;52.490;5.448;2023-09-08T07:55:15;14.05;;;8.98;;
81801;SDS011;71199;52.490;5.448;2023-09-08T07:57:44;14.73;;;9.25;;
81801;SDS011;71199;52.490;5.448;2023-09-08T08:00:13;14.32;;;9.35;;
81801;SDS011;71199;52.490;5.448;2023-09-08T08:02:41;12.45;;;9.00;;
81801;SDS011;71199;52.490;5.448;2023-09-08T08:05:11;17.02;;;9.65;;
81801;SDS011;71199;52.490;5.448;2023-09-08T08:07:37;16.20;;;9.38;;
81801;SDS011;71199;52.490;5.448;2023-09-08T08:10:03;15.43;;;8.88;;
81801;SDS011;71199;52.490;5.448;2023-09-08T08:14:55;12.82;;;8.85;;
81801;SDS011;71199;52.490;5.448;2023-09-08T08:17:20;9.95;;;7.75;;
81801;SDS011;71199;52.490;5.448;2023-09-08T08:19:46;13.02;;;8.85;;
81801;SDS011;71199;52.490;5.448;2023-09-08T08:22:12;12.55;;;8.27;;
81801;SDS011;71199;52.490;5.448;2023-09-08T08:24:37;11.17;;;8.30;;
81801;SDS011;71199;52.490;5.448;2023-09-08T08:27:02;15.97;;;8.77;;
81801;SDS011;71199;52.490;5.448;2023-09-08T08:29:28;10.52;;;8.20;;
81801;SDS011;71199;52.490;5.448;2023-09-08T08:31:54;11.18;;;8.45;;
81801;SDS011;71199;52.490;5.448;2023-09-08T08:34:20;12.02;;;8.70;;
81801;SDS011;71199;52.490;5.448;2023-09-08T08:36:45;11.68;;;8.43;;
81801;SDS011;71199;52.490;5.448;2023-09-08T08:39:10;10.93;;;7.30;;
81801;SDS011;71199;52.490;5.448;2023-09-08T08:41:36;13.00;;;9.20;;
81801;SDS011;71199;52.490;5.448;2023-09-08T08:44:05;12.05;;;8.07;;
81801;SDS011;71199;52.490;5.448;2023-09-08T08:46:32;11.40;;;8.10;;
81801;SDS011;71199;52.490;5.448;2023-09-08T08:48:58;13.07;;;8.50;;
81801;SDS011;71199;52.490;5.448;2023-09-08T08:51:26;12.48;;;7.47;;
81801;SDS011;71199;52.490;5.448;2023-09-08T08:53:54;10.95;;;7.82;;
81801;SDS011;71199;52.490;5.448;2023-09-08T08:56:20;13.38;;;8.50;;
81801;SDS011;71199;52.490;5.448;2023-09-08T08:58:45;11.05;;;7.40;;
81801;SDS011;71199;52.490;5.448;2023-09-08T09:01:11;11.23;;;7.72;;
81801;SDS011;71199;52.490;5.448;2023-09-08T09:03:37;12.93;;;8.00;;
81801;SDS011;71199;52.490;5.448;2023-09-08T09:06:04;10.77;;;7.55;;
81801;SDS011;71199;52.490;5.448;2023-09-08T09:08:30;10.63;;;7.83;;
81801;SDS011;71199;52.490;5.448;2023-09-08T09:10:57;12.63;;;8.00;;
81801;SDS011;71199;52.490;5.448;2023-09-08T09:13:22;13.68;;;8.82;;
81801;SDS011;71199;52.490;5.448;2023-09-08T09:15:48;11.52;;;7.15;;
81801;SDS011;71199;52.490;5.448;2023-09-08T09:18:14;15.73;;;8.07;;
81801;SDS011;71199;52.490;5.448;2023-09-08T09:20:40;12.95;;;8.40;;
81801;SDS011;71199;52.490;5.448;2023-09-08T09:25:31;13.55;;;8.30;;
81801;SDS011;71199;52.490;5.448;2023-09-08T09:27:58;12.15;;;7.82;;
81801;SDS011;71199;52.490;5.448;2023-09-08T09:30:26;11.45;;;7.88;;
81801;SDS011;71199;52.490;5.448;2023-09-08T09:33:04;11.70;;;7.38;;
81801;SDS011;71199;52.490;5.448;2023-09-08T09:35:46;14.18;;;8.88;;
81801;SDS011;71199;52.490;5.448;2023-09-08T09:38:17;10.18;;;7.63;;
81801;SDS011;71199;52.490;5.448;2023-09-08T09:40:43;9.25;;;7.38;;
81801;SDS011;71199;52.490;5.448;2023-09-08T09:43:09;9.60;;;7.82;;
81801;SDS011;71199;52.490;5.448;2023-09-08T09:45:36;10.77;;;7.43;;
81801;SDS011;71199;52.490;5.448;2023-09-08T09:48:05;11.40;;;8.05;;
81801;SDS011;71199;52.490;5.448;2023-09-08T09:52:59;9.82;;;7.32;;
81801;SDS011;71199;52.490;5.448;2023-09-08T09:55:28;12.52;;;8.02;;
81801;SDS011;71199;52.490;5.448;2023-09-08T09:57:56;11.93;;;7.25;;
81801;SDS011;71199;52.490;5.448;2023-09-08T10:00:28;10.70;;;8.38;;
81801;SDS011;71199;52.490;5.448;2023-09-08T10:02:56;9.45;;;7.68;;
81801;SDS011;71199;52.490;5.448;2023-09-08T10:05:22;11.68;;;7.72;;
81801;SDS011;71199;52.490;5.448;2023-09-08T10:07:49;10.32;;;7.57;;
81801;SDS011;71199;52.490;5.448;2023-09-08T10:10:15;15.65;;;7.85;;
81801;SDS011;71199;52.490;5.448;2023-09-08T10:12:42;11.38;;;7.18;;
81801;SDS011;71199;52.490;5.448;2023-09-08T10:15:10;9.52;;;6.57;;
81801;SDS011;71199;52.490;5.448;2023-09-08T10:17:36;9.93;;;7.38;;
81801;SDS011;71199;52.490;5.448;2023-09-08T10:20:02;10.98;;;7.38;;
81801;SDS011;71199;52.490;5.448;2023-09-08T10:22:41;9.02;;;7.25;;
81801;SDS011;71199;52.490;5.448;2023-09-08T10:25:10;10.93;;;7.07;;
81801;SDS011;71199;52.490;5.448;2023-09-08T10:27:39;9.57;;;7.13;;
81801;SDS011;71199;52.490;5.448;2023-09-08T10:30:06;9.75;;;7.00;;
81801;SDS011;71199;52.490;5.448;2023-09-08T10:32:32;10.50;;;6.97;;
81801;SDS011;71199;52.490;5.448;2023-09-08T10:35:00;10.13;;;7.03;;
81801;SDS011;71199;52.490;5.448;2023-09-08T10:37:29;12.52;;;6.95;;
81801;SDS011;71199;52.490;5.448;2023-09-08T10:40:40;10.45;;;6.53;;
81801;SDS011;71199;52.490;5.448;2023-09-08T10:43:07;10.70;;;6.80;;
81801;SDS011;71199;52.490;5.448;2023-09-08T10:45:34;15.02;;;7.22;;
81801;SDS011;71199;52.490;5.448;2023-09-08T10:47:59;10.98;;;7.30;;
81801;SDS011;71199;52.490;5.448;2023-09-08T10:50:26;11.48;;;8.07;;
81801;SDS011;71199;52.490;5.448;2023-09-08T10:58:31;13.45;;;8.25;;
81801;SDS011;71199;52.490;5.448;2023-09-08T11:00:59;10.85;;;7.50;;
81801;SDS011;71199;52.490;5.448;2023-09-08T11:06:06;9.27;;;7.22;;
81801;SDS011;71199;52.490;5.448;2023-09-08T11:08:32;10.45;;;7.13;;
81801;SDS011;71199;52.490;5.448;2023-09-08T11:10:58;11.18;;;8.23;;
81801;SDS011;71199;52.490;5.448;2023-09-08T11:13:25;12.27;;;7.32;;
81801;SDS011;71199;52.490;5.448;2023-09-08T11:15:51;11.07;;;7.55;;
81801;SDS011;71199;52.490;5.448;2023-09-08T11:18:17;10.02;;;8.45;;
81801;SDS011;71199;52.490;5.448;2023-09-08T11:20:44;16.08;;;9.68;;
81801;SDS011;71199;52.490;5.448;2023-09-08T11:23:10;10.93;;;8.48;;
81801;SDS011;71199;52.490;5.448;2023-09-08T11:25:35;21.13;;;12.88;;
81801;SDS011;71199;52.490;5.448;2023-09-08T11:28:01;14.07;;;7.85;;
81801;SDS011;71199;52.490;5.448;2023-09-08T11:30:27;12.15;;;8.82;;
81801;SDS011;71199;52.490;5.448;2023-09-08T11:32:53;13.50;;;8.32;;
81801;SDS011;71199;52.490;5.448;2023-09-08T11:35:18;15.60;;;8.68;;
81801;SDS011;71199;52.490;5.448;2023-09-08T11:37:46;10.93;;;7.75;;
81801;SDS011;71199;52.490;5.448;2023-09-08T11:40:11;10.45;;;7.38;;
81801;SDS011;71199;52.490;5.448;2023-09-08T11:42:38;17.38;;;11.52;;
81801;SDS011;71199;52.490;5.448;2023-09-08T11:45:12;15.63;;;9.10;;
81801;SDS011;71199;52.490;5.448;2023-09-08T11:47:39;20.17;;;10.65;;
81801;SDS011;71199;52.490;5.448;2023-09-08T11:50:06;9.82;;;7.00;;
81801;SDS011;71199;52.490;5.448;2023-09-08T11:52:32;11.77;;;7.85;;
81801;SDS011;71199;52.490;5.448;2023-09-08T11:54:58;7.88;;;6.78;;
81801;SDS011;71199;52.490;5.448;2023-09-08T11:57:23;13.82;;;8.00;;
81801;SDS011;71199;52.490;5.448;2023-09-08T11:59:49;16.83;;;11.52;;
81801;SDS011;71199;52.490;5.448;2023-09-08T12:02:15;14.25;;;7.95;;
81801;SDS011;71199;52.490;5.448;2023-09-08T12:04:40;12.65;;;8.23;;
81801;SDS011;71199;52.490;5.448;2023-09-08T12:07:07;12.85;;;7.95;;
81801;SDS011;71199;52.490;5.448;2023-09-08T12:09:40;11.77;;;6.97;;
81801;SDS011;71199;52.490;5.448;2023-09-08T12:12:10;21.20;;;11.15;;
81801;SDS011;71199;52.490;5.448;2023-09-08T12:14:40;13.88;;;8.90;;
81801;SDS011;71199;52.490;5.448;2023-09-08T12:17:07;12.23;;;8.90;;
81801;SDS011;71199;52.490;5.448;2023-09-08T12:19:32;14.60;;;10.40;;
81801;SDS011;71199;52.490;5.448;2023-09-08T12:22:01;11.32;;;7.28;;
81801;SDS011;71199;52.490;5.448;2023-09-08T12:27:18;9.38;;;6.75;;
81801;SDS011;71199;52.490;5.448;2023-09-08T12:29:57;12.90;;;8.70;;
81801;SDS011;71199;52.490;5.448;2023-09-08T12:32:25;10.57;;;6.57;;
81801;SDS011;71199;52.490;5.448;2023-09-08T12:34:53;10.25;;;7.68;;
81801;SDS011;71199;52.490;5.448;2023-09-08T12:37:22;10.13;;;6.55;;
81801;SDS011;71199;52.490;5.448;2023-09-08T12:39:48;10.27;;;7.82;;
81801;SDS011;71199;52.490;5.448;2023-09-08T12:42:14;11.35;;;8.10;;
81801;SDS011;71199;52.490;5.448;2023-09-08T12:44:40;13.85;;;7.45;;
81801;SDS011;71199;52.490;5.448;2023-09-08T12:47:06;10.27;;;6.75;;
81801;SDS011;71199;52.490;5.448;2023-09-08T12:49:31;8.73;;;6.60;;
81801;SDS011;71199;52.490;5.448;2023-09-08T12:51:57;9.30;;;6.90;;
81801;SDS011;71199;52.490;5.448;2023-09-08T12:54:22;10.20;;;7.20;;
81801;SDS011;71199;52.490;5.448;2023-09-08T12:56:47;11.93;;;6.57;;
81801;SDS011;71199;52.490;5.448;2023-09-08T12:59:13;10.77;;;7.07;;
81801;SDS011;71199;52.490;5.448;2023-09-08T13:01:38;9.47;;;6.30;;
81801;SDS011;71199;52.490;5.448;2023-09-08T13:04:03;11.95;;;8.02;;
81801;SDS011;71199;52.490;5.448;2023-09-08T13:06:29;11.75;;;6.65;;
81801;SDS011;71199;52.490;5.448;2023-09-08T13:08:56;9.60;;;6.30;;
81801;SDS011;71199;52.490;5.448;2023-09-08T13:11:23;8.18;;;6.95;;
81801;SDS011;71199;52.490;5.448;2023-09-08T13:13:49;12.95;;;7.55;;
81801;SDS011;71199;52.490;5.448;2023-09-08T13:16:14;10.65;;;6.63;;
81801;SDS011;71199;52.490;5.448;2023-09-08T13:18:40;11.88;;;8.02;;
81801;SDS011;71199;52.490;5.448;2023-09-08T13:21:06;12.25;;;8.57;;
81801;SDS011;71199;52.490;5.448;2023-09-08T13:23:31;11.48;;;8.10;;
81801;SDS011;71199;52.490;5.448;2023-09-08T13:25:57;12.63;;;8.88;;
81801;SDS011;71199;52.490;5.448;2023-09-08T13:28:22;12.90;;;8.68;;
81801;SDS011;71199;52.490;5.448;2023-09-08T13:30:47;12.93;;;9.30;;
81801;SDS011;71199;52.490;5.448;2023-09-08T13:33:13;17.33;;;8.95;;
81801;SDS011;71199;52.490;5.448;2023-09-08T13:35:38;12.98;;;7.97;;
81801;SDS011;71199;52.490;5.448;2023-09-08T13:38:04;10.55;;;7.50;;
81801;SDS011;71199;52.490;5.448;2023-09-08T13:40:29;11.32;;;7.53;;
81801;SDS011;71199;52.490;5.448;2023-09-08T13:42:55;8.60;;;7.70;;
81801;SDS011;71199;52.490;5.448;2023-09-08T13:45:20;14.68;;;7.78;;
81801;SDS011;71199;52.490;5.448;2023-09-08T13:47:46;10.50;;;7.55;;
81801;SDS011;71199;52.490;5.448;2023-09-08T13:50:11;9.73;;;7.30;;
81801;SDS011;71199;52.490;5.448;2023-09-08T13:52:37;12.67;;;8.50;;
81801;SDS011;71199;52.490;5.448;2023-09-08T13:55:05;13.43;;;7.93;;
81801;SDS011;71199;52.490;5.448;2023-09-08T13:57:31;11.20;;;8.10;;
81801;SDS011;71199;52.490;5.448;2023-09-08T13:59:56;18.43;;;7.87;;
81801;SDS011;71199;52.490;5.448;2023-09-08T14:02:21;9.75;;;7.70;;
81801;SDS011;71199;52.490;5.448;2023-09-08T14:04:47;14.98;;;9.10;;
81801;SDS011;71199;52.490;5.448;2023-09-08T14:07:12;11.20;;;8.17;;
81801;SDS011;71199;52.490;5.448;2023-09-08T14:09:38;11.88;;;8.18;;
81801;SDS011;71199;52.490;5.448;2023-09-08T14:12:04;11.05;;;7.50;;
81801;SDS011;71199;52.490;5.448;2023-09-08T14:14:30;9.20;;;7.30;;
81801;SDS011;71199;52.490;5.448;2023-09-08T14:16:55;16.00;;;10.20;;
81801;SDS011;71199;52.490;5.448;2023-09-08T14:19:21;20.83;;;13.73;;
81801;SDS011;71199;52.490;5.448;2023-09-08T14:21:46;13.88;;;8.32;;
81801;SDS011;71199;52.490;5.448;2023-09-08T14:24:12;9.98;;;7.82;;
81801;SDS011;71199;52.490;5.448;2023-09-08T14:26:37;11.63;;;8.63;;
81801;SDS011;71199;52.490;5.448;2023-09-08T14:29:03;10.02;;;7.53;;
81801;SDS011;71199;52.490;5.448;2023-09-08T14:31:29;10.10;;;8.05;;
81801;SDS011;71199;52.490;5.448;2023-09-08T14:33:54;12.00;;;7.38;;
81801;SDS011;71199;52.490;5.448;2023-09-08T14:36:20;10.68;;;7.72;;
81801;SDS011;71199;52.490;5.448;2023-09-08T14:38:46;12.43;;;7.05;;
81801;SDS011;71199;52.490;5.448;2023-09-08T14:41:12;14.30;;;7.72;;
81801;SDS011;71199;52.490;5.448;2023-09-08T14:43:37;12.60;;;8.48;;
81801;SDS011;71199;52.490;5.448;2023-09-08T14:46:03;11.75;;;7.95;;
81801;SDS011;71199;52.490;5.448;2023-09-08T14:48:29;15.70;;;8.13;;
81801;SDS011;71199;52.490;5.448;2023-09-08T14:50:56;11.32;;;9.40;;